Time;durP1;ratioP1;P1;durP2;ratioP2;P2;SDS_P1;SDS_P2;PMS_P1;PMS_P2;Temp;Humidity;BMP_temperature;BMP_pressure;BME280_temperature;BME280_humidity;BME280_pressure;Samples;Min_cycle;Max_cycle;Signal;HPM_P1;HPM_P2
2022/10/13 00:00:37;;;;;;;19.67;9.37;;;10.20;99.90;;;;;;5087947;28;20464;-76
2022/10/13 00:03:03;;;;;;;16.65;9.18;;;10.20;99.90;;;;;;5088447;28;20442;-75
2022/10/13 00:05:29;;;;;;;16.37;8.67;;;10.20;99.90;;;;;;5071597;28;20472;-76
2022/10/13 00:07:56;;;;;;;17.80;9.55;;;10.20;99.90;;;;;;5089333;28;20402;-76
2022/10/13 00:10:23;;;;;;;18.90;9.63;;;10.20;99.90;;;;;;5088439;28;20398;-76
2022/10/13 00:12:48;;;;;;;19.60;9.95;;;10.30;99.90;;;;;;5088154;28;20443;-76
2022/10/13 00:15:14;;;;;;;17.97;9.90;;;10.30;99.90;;;;;;5088898;28;20499;-75
2022/10/13 00:17:40;;;;;;;18.10;10.10;;;10.20;99.90;;;;;;5087704;28;20835;-76
2022/10/13 00:20:07;;;;;;;20.83;9.95;;;10.30;99.90;;;;;;5087924;28;20489;-76
2022/10/13 00:22:33;;;;;;;22.70;10.27;;;10.20;99.90;;;;;;5089168;28;20475;-76
2022/10/13 00:24:59;;;;;;;18.95;9.88;;;10.20;99.90;;;;;;5088286;28;20402;-76
2022/10/13 00:27:25;;;;;;;19.20;10.27;;;10.30;99.90;;;;;;5098637;28;20404;-76
2022/10/13 00:29:50;;;;;;;20.27;9.57;;;10.20;99.90;;;;;;5089523;28;20448;-76
2022/10/13 00:32:16;;;;;;;17.27;9.60;;;10.30;99.90;;;;;;5076517;28;20444;-76
2022/10/13 00:34:42;;;;;;;22.48;10.15;;;10.30;99.90;;;;;;5084719;28;20807;-76
2022/10/13 00:37:07;;;;;;;19.93;10.03;;;10.30;99.90;;;;;;5087833;28;20406;-76
2022/10/13 00:39:33;;;;;;;18.42;10.57;;;10.30;99.90;;;;;;5087851;28;20802;-76
2022/10/13 00:41:59;;;;;;;19.70;10.73;;;10.30;99.90;;;;;;5089072;28;20417;-76
2022/10/13 00:45:03;;;;;;;19.95;10.40;;;10.30;99.90;;;;;;5087495;28;20406;-76
2022/10/13 00:47:41;;;;;;;19.40;10.23;;;10.30;99.90;;;;;;5087112;28;20417;-76
2022/10/13 00:50:11;;;;;;;18.55;11.13;;;10.30;99.90;;;;;;5086420;28;20421;-76
2022/10/13 00:52:39;;;;;;;19.80;10.85;;;10.30;99.90;;;;;;5087883;28;20437;-76
2022/10/13 00:55:08;;;;;;;20.42;10.75;;;10.30;99.90;;;;;;5087177;28;20406;-76
2022/10/13 00:57:34;;;;;;;23.30;11.52;;;10.30;99.90;;;;;;5088653;28;20900;-76
2022/10/13 01:00:02;;;;;;;18.93;10.67;;;10.30;99.90;;;;;;5075849;28;20408;-76
2022/10/13 01:02:31;;;;;;;21.23;11.35;;;10.40;99.90;;;;;;5088299;28;20414;-76
2022/10/13 01:04:58;;;;;;;22.92;10.90;;;10.40;99.90;;;;;;5086982;28;20414;-76
2022/10/13 01:07:24;;;;;;;23.23;11.20;;;10.40;99.90;;;;;;5088548;28;20421;-76
2022/10/13 01:09:50;;;;;;;19.13;10.82;;;10.30;99.90;;;;;;5088587;28;20903;-76
2022/10/13 01:12:40;;;;;;;20.83;11.23;;;10.40;99.90;;;;;;5088285;28;20438;-75
2022/10/13 01:15:30;;;;;;;21.70;12.10;;;10.40;99.90;;;;;;5086508;28;20406;-76
2022/10/13 01:18:14;;;;;;;25.08;11.68;;;10.40;99.90;;;;;;5100341;28;20412;-76
2022/10/13 01:21:13;;;;;;;21.00;11.10;;;10.40;99.90;;;;;;5076244;28;20450;-76
2022/10/13 01:24:12;;;;;;;20.15;10.38;;;10.40;99.90;;;;;;5075255;28;20907;-76
2022/10/13 01:26:56;;;;;;;20.98;11.35;;;10.40;99.90;;;;;;5077856;28;20449;-76
2022/10/13 01:29:59;;;;;;;21.40;11.43;;;10.40;99.90;;;;;;5086440;28;20419;-76
2022/10/13 01:32:34;;;;;;;19.40;11.13;;;10.40;99.90;;;;;;5086185;28;20942;-76
2022/10/13 01:35:08;;;;;;;25.50;11.77;;;10.40;99.90;;;;;;5087765;28;20405;-76
2022/10/13 01:37:46;;;;;;;17.45;10.75;;;10.40;99.90;;;;;;5075084;28;20398;-76
2022/10/13 01:40:22;;;;;;;20.60;12.00;;;10.40;99.90;;;;;;5086145;28;21277;-76
2022/10/13 01:43:01;;;;;;;22.70;11.50;;;10.40;99.90;;;;;;5088342;28;20441;-76
2022/10/13 01:45:41;;;;;;;23.97;11.97;;;10.40;99.90;;;;;;5087854;28;20485;-76
2022/10/13 01:48:08;;;;;;;18.83;11.33;;;10.30;99.90;;;;;;5086671;28;20497;-76
2022/10/13 01:50:35;;;;;;;20.65;11.90;;;10.40;99.90;;;;;;5086775;28;20414;-76
2022/10/13 01:53:03;;;;;;;21.50;11.60;;;10.40;99.90;;;;;;5087931;28;20582;-76
2022/10/13 01:55:30;;;;;;;22.17;12.30;;;10.40;99.90;;;;;;5086154;28;20398;-76
2022/10/13 01:57:56;;;;;;;23.75;12.23;;;10.40;99.90;;;;;;5086382;28;20405;-75
2022/10/13 02:00:22;;;;;;;20.83;11.70;;;10.30;99.90;;;;;;5103525;28;20406;-76
2022/10/13 02:03:10;;;;;;;22.35;12.35;;;10.40;99.90;;;;;;5088012;28;20402;-76
2022/10/13 02:06:00;;;;;;;26.48;12.82;;;10.40;99.90;;;;;;5086250;28;20421;-76
2022/10/13 02:08:29;;;;;;;24.40;12.20;;;10.40;99.90;;;;;;5086682;28;20418;-76
2022/10/13 02:11:00;;;;;;;23.60;12.80;;;10.40;99.90;;;;;;5069693;28;20413;-76
2022/10/13 02:13:28;;;;;;;22.63;12.75;;;10.40;99.90;;;;;;5086655;28;20422;-76
2022/10/13 02:15:57;;;;;;;22.37;12.30;;;10.40;99.90;;;;;;5086516;28;20398;-75
2022/10/13 02:18:30;;;;;;;28.27;13.00;;;10.40;99.90;;;;;;5086513;28;20459;-76
2022/10/13 02:20:56;;;;;;;23.97;12.57;;;10.30;99.90;;;;;;5086717;28;20410;-76
2022/10/13 02:23:23;;;;;;;25.23;13.30;;;10.30;99.90;;;;;;5086768;28;21154;-76
2022/10/13 02:25:50;;;;;;;25.02;12.85;;;10.30;99.90;;;;;;5087906;28;20410;-76
2022/10/13 02:28:16;;;;;;;23.03;13.17;;;10.30;99.90;;;;;;5086549;28;20464;-76
2022/10/13 02:30:43;;;;;;;22.98;12.50;;;10.30;99.90;;;;;;5086336;28;20426;-76
2022/10/13 02:33:10;;;;;;;22.58;13.00;;;10.30;99.90;;;;;;5087854;28;20455;-76
2022/10/13 02:35:35;;;;;;;22.45;12.77;;;10.30;99.90;;;;;;5069575;28;20394;-76
2022/10/13 02:38:01;;;;;;;22.25;12.65;;;10.30;99.90;;;;;;5088145;28;20809;-76
2022/10/13 02:40:27;;;;;;;24.43;12.50;;;10.30;99.90;;;;;;5123157;27;20398;-76
2022/10/13 02:42:53;;;;;;;22.95;12.45;;;10.30;99.90;;;;;;5090359;28;20459;-76
2022/10/13 02:45:19;;;;;;;22.75;12.90;;;10.30;99.90;;;;;;5091173;28;20414;-76
2022/10/13 02:47:45;;;;;;;23.13;12.70;;;10.30;99.90;;;;;;5091079;28;20413;-76
2022/10/13 02:50:11;;;;;;;22.17;12.80;;;10.30;99.90;;;;;;5092749;28;20810;-76
2022/10/13 02:52:37;;;;;;;25.33;13.17;;;10.30;99.90;;;;;;5091038;28;20521;-76
2022/10/13 02:55:04;;;;;;;22.90;12.30;;;10.30;99.90;;;;;;5089107;28;20978;-76
2022/10/13 02:57:29;;;;;;;22.10;11.65;;;10.30;99.90;;;;;;5089783;28;20406;-76
2022/10/13 02:59:55;;;;;;;22.00;12.13;;;10.30;99.90;;;;;;5078129;28;20519;-76
2022/10/13 03:02:21;;;;;;;21.25;12.68;;;10.30;99.90;;;;;;5089104;28;20837;-76
2022/10/13 03:04:48;;;;;;;20.63;12.10;;;10.30;99.90;;;;;;5102686;28;20402;-76
2022/10/13 03:07:14;;;;;;;21.70;11.98;;;10.30;99.90;;;;;;5090741;28;20402;-76
2022/10/13 03:09:40;;;;;;;22.98;12.40;;;10.30;99.90;;;;;;5089381;28;20414;-76
2022/10/13 03:12:06;;;;;;;23.43;13.00;;;10.30;99.90;;;;;;5072359;28;20432;-76
2022/10/13 03:14:31;;;;;;;21.52;12.63;;;10.30;99.90;;;;;;5089534;28;20417;-76
2022/10/13 03:16:57;;;;;;;20.53;12.10;;;10.20;99.90;;;;;;5090301;28;20505;-76
2022/10/13 03:19:23;;;;;;;22.50;12.15;;;10.30;99.90;;;;;;5090363;28;20484;-76
2022/10/13 03:21:49;;;;;;;22.55;12.05;;;10.20;99.90;;;;;;5089147;28;20451;-76
2022/10/13 03:24:14;;;;;;;22.40;11.50;;;10.30;99.90;;;;;;5089378;28;20402;-76
2022/10/13 03:26:40;;;;;;;25.45;12.32;;;10.20;99.90;;;;;;5089510;28;20410;-76
2022/10/13 03:29:06;;;;;;;23.70;12.27;;;10.20;99.90;;;;;;5089328;28;20398;-76
2022/10/13 03:35:12;;;;;;;23.48;12.25;;;10.20;99.90;;;;;;4837529;28;20516;-76
2022/10/13 03:37:38;;;;;;;22.30;12.40;;;10.20;99.90;;;;;;5089152;28;20504;-76
2022/10/13 03:40:04;;;;;;;23.75;13.40;;;10.20;99.90;;;;;;5089587;28;20424;-76
2022/10/13 03:42:30;;;;;;;20.65;12.88;;;10.20;99.90;;;;;;5089009;28;20402;-76
2022/10/13 03:44:55;;;;;;;24.73;12.90;;;10.20;99.90;;;;;;5088612;28;20402;-76
2022/10/13 03:47:21;;;;;;;24.65;12.40;;;10.20;99.90;;;;;;5088934;28;20477;-76
2022/10/13 03:49:46;;;;;;;22.43;13.00;;;10.20;99.90;;;;;;5101459;28;20821;-76
2022/10/13 03:52:12;;;;;;;24.93;12.93;;;10.20;99.90;;;;;;5088823;28;20430;-76
2022/10/13 03:54:38;;;;;;;22.92;12.85;;;10.20;99.90;;;;;;5088181;28;20455;-76
2022/10/13 03:57:03;;;;;;;24.13;13.37;;;10.20;99.90;;;;;;5096156;28;20408;-76
2022/10/13 03:59:29;;;;;;;24.25;13.18;;;10.20;99.90;;;;;;5084400;28;20404;-76
2022/10/13 04:01:55;;;;;;;25.40;13.80;;;10.20;99.90;;;;;;5070118;28;21092;-76
2022/10/13 04:04:20;;;;;;;27.83;14.32;;;10.20;99.90;;;;;;5081469;28;20899;-76
2022/10/13 04:06:46;;;;;;;24.90;14.47;;;10.20;99.90;;;;;;5088305;28;20402;-76
2022/10/13 04:09:11;;;;;;;24.00;14.40;;;10.30;99.90;;;;;;5089489;28;20807;-75
2022/10/13 04:11:37;;;;;;;24.23;14.20;;;10.20;99.90;;;;;;5088363;28;20487;-76
2022/10/13 04:14:03;;;;;;;24.42;14.38;;;10.20;99.90;;;;;;5087842;28;20776;-77
2022/10/13 04:16:30;;;;;;;23.10;13.87;;;10.30;99.90;;;;;;5088272;28;20745;-77
2022/10/13 04:18:58;;;;;;;27.33;15.23;;;10.20;99.90;;;;;;5087682;28;20410;-76
2022/10/13 04:21:25;;;;;;;25.33;15.57;;;10.30;99.90;;;;;;5076527;28;20473;-76
2022/10/13 04:23:57;;;;;;;25.40;14.82;;;10.30;99.90;;;;;;5087756;28;20414;-76
2022/10/13 04:26:24;;;;;;;28.23;15.73;;;10.30;99.90;;;;;;5089014;28;20899;-76
2022/10/13 04:28:51;;;;;;;27.33;15.93;;;10.30;99.90;;;;;;5088139;28;20432;-76
2022/10/13 04:31:18;;;;;;;30.08;16.35;;;10.30;99.90;;;;;;5088899;28;20409;-76
2022/10/13 04:33:44;;;;;;;27.73;16.02;;;10.30;99.90;;;;;;5087132;28;20410;-76
2022/10/13 04:36:12;;;;;;;28.07;16.77;;;10.30;99.90;;;;;;5088350;28;20436;-76
2022/10/13 04:38:38;;;;;;;30.50;17.23;;;10.30;99.90;;;;;;5089066;28;20467;-76
2022/10/13 04:41:04;;;;;;;29.88;17.05;;;10.30;99.90;;;;;;5088850;28;20621;-75
2022/10/13 04:43:31;;;;;;;26.55;17.08;;;10.30;99.90;;;;;;5089430;28;20821;-76
2022/10/13 04:46:06;;;;;;;31.60;17.67;;;10.30;99.90;;;;;;5087705;28;20406;-75
2022/10/13 04:48:32;;;;;;;32.30;17.90;;;10.30;99.90;;;;;;5088988;28;20447;-75
2022/10/13 04:51:08;;;;;;;33.25;17.85;;;10.30;99.90;;;;;;5089073;28;20413;-76
2022/10/13 04:53:34;;;;;;;33.63;18.25;;;10.30;99.90;;;;;;5087392;28;20487;-76
2022/10/13 04:56:02;;;;;;;34.60;18.48;;;10.30;99.90;;;;;;5088767;28;20493;-75
2022/10/13 04:58:28;;;;;;;35.08;19.40;;;10.30;99.90;;;;;;5085215;28;20481;-75
2022/10/13 05:00:54;;;;;;;33.47;19.03;;;10.30;99.90;;;;;;5080418;28;20405;-75
2022/10/13 05:03:19;;;;;;;33.63;18.63;;;10.30;99.90;;;;;;5069638;28;20437;-75
2022/10/13 05:05:45;;;;;;;50.25;26.98;;;10.30;99.90;;;;;;5082178;28;20408;-75
2022/10/13 05:08:10;;;;;;;37.90;20.37;;;10.30;99.90;;;;;;5093189;28;20392;-75
2022/10/13 05:10:36;;;;;;;33.00;19.92;;;10.30;99.90;;;;;;5096729;28;20450;-75
2022/10/13 05:13:02;;;;;;;37.30;19.67;;;10.30;99.90;;;;;;5088220;28;21815;-75
2022/10/13 05:15:27;;;;;;;37.80;21.05;;;10.30;99.90;;;;;;5087337;28;20398;-75
2022/10/13 05:17:53;;;;;;;36.67;21.10;;;10.30;99.90;;;;;;5088078;28;20409;-75
2022/10/13 05:20:18;;;;;;;36.80;20.80;;;10.30;99.90;;;;;;5087767;28;20858;-75
2022/10/13 05:22:44;;;;;;;39.03;21.70;;;10.30;99.90;;;;;;5088391;28;20409;-75
2022/10/13 05:25:10;;;;;;;40.83;21.40;;;10.20;99.90;;;;;;5088454;28;20448;-74
2022/10/13 05:27:35;;;;;;;40.53;21.27;;;10.20;99.90;;;;;;5088108;28;20434;-74
2022/10/13 05:30:01;;;;;;;40.43;22.43;;;10.20;99.90;;;;;;5086514;28;20398;-75
2022/10/13 05:32:26;;;;;;;42.30;22.38;;;10.20;99.90;;;;;;5105334;28;20420;-74
2022/10/13 05:34:52;;;;;;;39.50;21.53;;;10.20;99.90;;;;;;5084962;28;20820;-75
2022/10/13 05:37:18;;;;;;;38.20;21.70;;;10.30;99.90;;;;;;5102539;28;20453;-74
2022/10/13 05:39:44;;;;;;;42.57;21.87;;;10.20;99.90;;;;;;5107865;28;20396;-74
2022/10/13 05:42:09;;;;;;;40.88;21.27;;;10.20;99.90;;;;;;5089734;28;20397;-74
2022/10/13 05:44:36;;;;;;;41.72;22.48;;;10.20;99.90;;;;;;5099510;28;20396;-74
2022/10/13 05:47:02;;;;;;;44.38;22.42;;;10.20;99.90;;;;;;5093516;28;20400;-74
2022/10/13 05:49:28;;;;;;;40.22;22.33;;;10.20;99.90;;;;;;5096186;28;20918;-74
2022/10/13 05:52:02;;;;;;;47.38;23.30;;;10.20;99.90;;;;;;5086219;28;20417;-74
2022/10/13 05:54:38;;;;;;;42.75;22.83;;;10.20;99.90;;;;;;5086527;28;20463;-73
2022/10/13 05:57:16;;;;;;;41.50;22.25;;;10.30;99.90;;;;;;5086452;28;20410;-73
2022/10/13 05:59:51;;;;;;;44.78;23.52;;;10.20;99.90;;;;;;5082052;28;20475;-73
2022/10/13 06:02:20;;;;;;;42.88;22.55;;;10.30;99.90;;;;;;5086020;28;20424;-73
2022/10/13 06:04:50;;;;;;;46.90;23.67;;;10.20;99.90;;;;;;5087613;28;20410;-73
2022/10/13 06:07:16;;;;;;;45.33;24.30;;;10.20;99.90;;;;;;5087618;28;20402;-73
2022/10/13 06:09:42;;;;;;;49.42;23.27;;;10.20;99.90;;;;;;5087659;28;20397;-73
2022/10/13 06:12:09;;;;;;;47.90;24.40;;;10.20;99.90;;;;;;5086873;28;20462;-74
2022/10/13 06:14:34;;;;;;;43.72;24.00;;;10.20;99.90;;;;;;5090476;28;20398;-74
2022/10/13 06:17:00;;;;;;;45.85;24.70;;;10.20;99.90;;;;;;5090997;28;20429;-74
2022/10/13 06:19:26;;;;;;;48.03;24.63;;;10.20;99.90;;;;;;5092953;28;20995;-74
2022/10/13 06:21:51;;;;;;;45.28;24.05;;;10.20;99.90;;;;;;5090552;28;21255;-74
2022/10/13 06:24:17;;;;;;;45.70;24.23;;;10.20;99.90;;;;;;5091731;28;20457;-74
2022/10/13 06:26:43;;;;;;;48.38;25.27;;;10.20;99.90;;;;;;5090240;28;20429;-74
2022/10/13 06:29:08;;;;;;;46.83;25.23;;;10.20;99.90;;;;;;5091160;28;20398;-74
2022/10/13 06:31:34;;;;;;;48.75;25.00;;;10.30;99.90;;;;;;5090383;28;21045;-74
2022/10/13 06:33:59;;;;;;;52.30;26.10;;;10.30;99.90;;;;;;5087944;28;20416;-74
2022/10/13 06:36:25;;;;;;;51.05;25.17;;;10.30;99.90;;;;;;5088671;28;20756;-74
2022/10/13 06:38:51;;;;;;;48.60;26.33;;;10.30;99.90;;;;;;5103564;28;20406;-74
2022/10/13 06:41:17;;;;;;;51.80;25.92;;;10.30;99.90;;;;;;5104533;28;20536;-74
2022/10/13 06:43:43;;;;;;;48.85;24.98;;;10.30;99.90;;;;;;5105832;28;20393;-74
2022/10/13 06:46:09;;;;;;;49.73;26.73;;;10.30;99.90;;;;;;5109505;28;20409;-74
2022/10/13 06:48:35;;;;;;;53.10;26.48;;;10.40;99.90;;;;;;5101521;28;20518;-72
2022/10/13 06:51:07;;;;;;;49.07;26.40;;;10.40;99.90;;;;;;5086382;28;20425;-72
2022/10/13 06:53:32;;;;;;;56.30;27.27;;;10.40;99.90;;;;;;5088675;28;20444;-72
2022/10/13 06:56:00;;;;;;;55.63;28.10;;;10.40;99.90;;;;;;5092486;28;20417;-72
2022/10/13 06:58:26;;;;;;;57.00;28.30;;;10.40;99.90;;;;;;5085582;28;20467;-72
2022/10/13 07:00:52;;;;;;;57.10;28.23;;;10.50;99.90;;;;;;5064268;28;20853;-72
2022/10/13 07:03:18;;;;;;;60.45;28.17;;;10.50;99.90;;;;;;5089307;28;20795;-72
2022/10/13 07:05:43;;;;;;;60.83;28.93;;;10.60;99.90;;;;;;5089926;28;20426;-72
2022/10/13 07:08:09;;;;;;;58.45;29.15;;;10.60;99.90;;;;;;5089314;28;20489;-72
2022/10/13 07:10:37;;;;;;;58.40;29.30;;;10.60;99.90;;;;;;5088985;28;20410;-72
2022/10/13 07:13:03;;;;;;;53.03;28.70;;;10.70;99.90;;;;;;5071286;28;20430;-72
2022/10/13 07:15:29;;;;;;;58.15;29.50;;;10.80;99.90;;;;;;5090642;28;20409;-73
2022/10/13 07:17:55;;;;;;;60.40;30.52;;;10.80;99.90;;;;;;5093632;28;20780;-73
2022/10/13 07:20:22;;;;;;;62.58;30.17;;;10.80;99.90;;;;;;5096572;28;20405;-73
2022/10/13 07:22:48;;;;;;;61.85;30.15;;;10.90;99.90;;;;;;5089222;28;20402;-73
2022/10/13 07:25:15;;;;;;;64.33;30.43;;;10.90;99.90;;;;;;5088017;28;20988;-73
2022/10/13 07:27:41;;;;;;;57.15;29.88;;;10.90;99.90;;;;;;5088768;28;20394;-73
2022/10/13 07:30:07;;;;;;;59.20;30.13;;;11.00;99.90;;;;;;5071187;28;20463;-73
2022/10/13 07:32:35;;;;;;;59.10;29.90;;;11.10;99.90;;;;;;5094354;28;20431;-73
2022/10/13 07:35:01;;;;;;;59.58;30.50;;;11.10;99.90;;;;;;5106623;28;20393;-73
2022/10/13 07:37:27;;;;;;;62.63;31.70;;;11.10;99.90;;;;;;5100462;28;20499;-73
2022/10/13 07:39:53;;;;;;;60.67;30.43;;;11.20;99.90;;;;;;5103255;28;20479;-73
2022/10/13 07:42:18;;;;;;;58.53;30.77;;;11.30;99.90;;;;;;5087981;28;20406;-73
2022/10/13 07:44:44;;;;;;;57.83;29.67;;;11.30;99.90;;;;;;5091391;28;20409;-73
2022/10/13 07:47:09;;;;;;;56.17;29.40;;;11.40;99.90;;;;;;5088736;28;20926;-73
2022/10/13 07:49:36;;;;;;;59.10;30.10;;;11.50;99.90;;;;;;5089462;28;20422;-73
2022/10/13 07:52:02;;;;;;;56.75;29.00;;;11.50;99.90;;;;;;5072090;28;20556;-73
2022/10/13 07:54:27;;;;;;;57.30;29.70;;;11.60;99.90;;;;;;5119995;27;20422;-73
2022/10/13 07:56:54;;;;;;;48.90;28.43;;;11.60;99.90;;;;;;5088834;28;20417;-73
2022/10/13 07:59:20;;;;;;;47.85;27.70;;;11.70;99.90;;;;;;5086746;28;20939;-73
2022/10/13 08:01:46;;;;;;;49.30;27.38;;;11.70;99.90;;;;;;5088312;28;20418;-73
2022/10/13 08:04:12;;;;;;;50.95;27.17;;;11.70;99.90;;;;;;5088984;28;20457;-73
2022/10/13 08:06:38;;;;;;;46.83;26.38;;;11.80;99.90;;;;;;5094081;28;20433;-73
2022/10/13 08:09:04;;;;;;;48.47;26.07;;;11.70;99.90;;;;;;5130048;27;20445;-71
2022/10/13 08:11:30;;;;;;;49.33;25.83;;;11.80;99.90;;;;;;5087881;28;20418;-72
2022/10/13 08:13:59;;;;;;;49.42;25.75;;;11.70;99.90;;;;;;5087865;28;20443;-73
2022/10/13 08:16:26;;;;;;;43.08;25.33;;;11.80;99.90;;;;;;5122025;27;20802;-73
2022/10/13 08:18:52;;;;;;;47.20;26.15;;;11.80;99.90;;;;;;5081795;28;20509;-73
2022/10/13 08:21:21;;;;;;;46.78;26.48;;;11.80;99.90;;;;;;5093554;28;20499;-73
2022/10/13 08:23:47;;;;;;;44.60;25.77;;;11.70;99.90;;;;;;5142562;27;20409;-74
2022/10/13 08:26:22;;;;;;;43.97;26.30;;;11.70;99.90;;;;;;5086748;28;20462;-74
2022/10/13 08:28:48;;;;;;;47.90;26.27;;;11.70;99.90;;;;;;5087594;28;20413;-73
2022/10/13 08:31:14;;;;;;;46.03;26.55;;;11.70;99.90;;;;;;5120639;27;20406;-73
2022/10/13 08:33:40;;;;;;;43.17;25.33;;;11.70;99.90;;;;;;5086864;28;20501;-73
2022/10/13 08:36:07;;;;;;;47.97;26.23;;;11.80;99.90;;;;;;5086206;28;20933;-73
2022/10/13 08:38:33;;;;;;;44.35;25.45;;;11.80;99.90;;;;;;5087328;28;20420;-73
2022/10/13 08:40:59;;;;;;;43.13;24.57;;;11.80;99.90;;;;;;5087083;28;20449;-73
2022/10/13 08:43:25;;;;;;;39.70;24.55;;;11.90;99.90;;;;;;5083931;28;20418;-74
2022/10/13 08:45:57;;;;;;;40.15;24.27;;;11.90;99.90;;;;;;5087530;28;20449;-74
2022/10/13 08:48:31;;;;;;;42.13;24.08;;;12.00;99.90;;;;;;5087375;28;20410;-75
2022/10/13 08:51:00;;;;;;;40.47;24.08;;;12.00;99.90;;;;;;5086135;28;20434;-75
2022/10/13 08:53:28;;;;;;;41.67;23.83;;;12.00;99.90;;;;;;5118401;27;20978;-75
2022/10/13 08:55:59;;;;;;;44.03;23.92;;;12.00;99.90;;;;;;5114089;27;20778;-75
2022/10/13 08:58:31;;;;;;;38.97;23.05;;;12.00;99.90;;;;;;5088963;28;20396;-75
2022/10/13 09:01:06;;;;;;;41.28;23.08;;;12.00;99.90;;;;;;5087819;28;20706;-75
2022/10/13 09:03:37;;;;;;;40.63;24.23;;;12.10;99.90;;;;;;5088589;28;20740;-75
2022/10/13 09:06:12;;;;;;;40.13;23.90;;;12.10;99.90;;;;;;5087305;28;20452;-75
2022/10/13 09:08:42;;;;;;;38.17;23.02;;;12.20;99.90;;;;;;5087653;28;20433;-75
2022/10/13 09:11:12;;;;;;;38.83;23.05;;;12.20;99.90;;;;;;5104141;28;20410;-75
2022/10/13 09:13:38;;;;;;;42.47;24.50;;;12.20;99.90;;;;;;5088290;28;20426;-75
2022/10/13 09:16:03;;;;;;;40.63;23.73;;;12.20;99.90;;;;;;5086489;28;20418;-75
2022/10/13 09:18:31;;;;;;;39.47;23.90;;;12.30;99.90;;;;;;5067731;28;20436;-76
2022/10/13 09:21:29;;;;;;;42.28;23.65;;;12.30;99.90;;;;;;5086931;28;20409;-75
2022/10/13 09:24:05;;;;;;;43.78;23.83;;;12.30;99.90;;;;;;5087237;28;20759;-75
2022/10/13 09:26:37;;;;;;;39.50;23.87;;;12.40;99.90;;;;;;5085975;28;20426;-76
2022/10/13 09:29:10;;;;;;;42.92;24.23;;;12.30;99.90;;;;;;5076196;28;20421;-76
2022/10/13 09:31:36;;;;;;;41.17;24.13;;;12.40;99.90;;;;;;5074889;28;20458;-76
2022/10/13 09:34:21;;;;;;;40.95;24.90;;;12.40;99.90;;;;;;5079247;28;20410;-75
2022/10/13 09:36:56;;;;;;;41.85;25.05;;;12.50;99.90;;;;;;5085987;28;20425;-76
2022/10/13 09:39:22;;;;;;;39.47;24.38;;;12.50;99.90;;;;;;5088416;28;20740;-75
2022/10/13 09:41:48;;;;;;;42.35;25.00;;;12.60;99.90;;;;;;5090110;28;20428;-76
2022/10/13 09:44:29;;;;;;;44.83;25.23;;;12.60;99.90;;;;;;5100205;28;20404;-76
2022/10/13 09:46:58;;;;;;;44.67;25.33;;;12.70;99.90;;;;;;5103765;28;20511;-76
2022/10/13 09:49:37;;;;;;;42.80;26.17;;;12.80;99.90;;;;;;5101537;28;20409;-76
2022/10/13 09:52:12;;;;;;;42.22;25.45;;;12.80;99.90;;;;;;5102624;28;20427;-76
2022/10/13 09:54:50;;;;;;;41.50;25.35;;;12.80;99.90;;;;;;5138078;27;20450;-76
2022/10/13 09:57:28;;;;;;;40.47;25.25;;;12.90;99.90;;;;;;5096377;28;20751;-76
2022/10/13 10:00:10;;;;;;;43.95;26.17;;;12.90;99.90;;;;;;5135349;27;20679;-76
2022/10/13 10:03:01;;;;;;;43.10;25.98;;;12.90;99.90;;;;;;5100953;28;20443;-76
2022/10/13 10:05:44;;;;;;;44.78;26.23;;;12.90;99.90;;;;;;5072205;28;20470;-77
2022/10/13 10:08:45;;;;;;;43.95;26.33;;;12.90;99.90;;;;;;5088917;28;20528;-77
2022/10/13 10:11:26;;;;;;;43.90;26.95;;;12.90;99.90;;;;;;5069316;28;20414;-76
2022/10/13 10:13:51;;;;;;;49.67;28.35;;;12.90;99.90;;;;;;5088049;28;20433;-76
2022/10/13 10:16:21;;;;;;;49.03;28.77;;;12.90;99.90;;;;;;5089817;28;20783;-76
2022/10/13 10:19:35;;;;;;;46.67;28.05;;;12.90;99.90;;;;;;5090058;28;20484;-76
2022/10/13 10:22:28;;;;;;;51.50;28.77;;;13.00;99.90;;;;;;5122211;27;20966;-76
2022/10/13 10:25:12;;;;;;;49.50;29.30;;;13.00;99.90;;;;;;5086584;28;20717;-76
2022/10/13 10:27:43;;;;;;;50.08;28.40;;;13.10;99.90;;;;;;5089554;28;20923;-76
2022/10/13 10:30:16;;;;;;;47.45;28.70;;;13.10;99.90;;;;;;5089877;28;20420;-77
2022/10/13 10:33:09;;;;;;;49.70;28.40;;;13.20;99.90;;;;;;5090976;28;20461;-76
2022/10/13 10:36:07;;;;;;;47.72;27.92;;;13.20;99.90;;;;;;5088427;28;20481;-76
2022/10/13 10:38:51;;;;;;;49.07;28.23;;;13.20;99.90;;;;;;5096044;28;20427;-76
2022/10/13 10:41:40;;;;;;;48.53;27.95;;;13.30;99.90;;;;;;5106938;28;20480;-77
2022/10/13 10:44:35;;;;;;;50.23;28.20;;;13.40;99.90;;;;;;5118350;27;20917;-77
2022/10/13 10:47:05;;;;;;;42.08;25.98;;;13.40;99.90;;;;;;5104992;28;20394;-77
2022/10/13 10:49:38;;;;;;;43.10;26.20;;;13.40;99.90;;;;;;5105309;28;20427;-76
2022/10/13 10:52:09;;;;;;;42.47;26.50;;;13.40;99.90;;;;;;5102224;28;20420;-76
2022/10/13 10:54:35;;;;;;;45.23;25.40;;;13.40;99.90;;;;;;5104505;28;20445;-76
2022/10/13 10:57:13;;;;;;;40.50;25.65;;;13.40;99.90;;;;;;5102551;28;20400;-76
2022/10/13 11:00:06;;;;;;;42.42;25.58;;;13.40;99.90;;;;;;5082768;28;20474;-77
2022/10/13 11:02:57;;;;;;;42.95;25.95;;;13.40;99.90;;;;;;5090866;28;20409;-76
2022/10/13 11:05:23;;;;;;;43.92;25.58;;;13.40;99.90;;;;;;5090610;28;20449;-76
2022/10/13 11:07:51;;;;;;;46.00;25.37;;;13.40;99.90;;;;;;5098430;28;20956;-76
2022/10/13 11:10:20;;;;;;;44.47;26.15;;;13.40;99.90;;;;;;5099112;28;20420;-76
2022/10/13 11:12:52;;;;;;;43.20;25.25;;;13.40;99.90;;;;;;5101646;28;20536;-76
2022/10/13 11:15:25;;;;;;;40.10;24.95;;;13.40;99.90;;;;;;5107953;28;20735;-76
2022/10/13 11:17:51;;;;;;;41.42;23.80;;;13.40;99.90;;;;;;5106387;28;20416;-76
2022/10/13 11:20:19;;;;;;;40.55;24.23;;;13.50;99.90;;;;;;5105059;28;20461;-76
2022/10/13 11:23:25;;;;;;;42.92;24.95;;;13.50;99.90;;;;;;5087429;28;21143;-76
2022/10/13 11:25:50;;;;;;;39.43;24.10;;;13.50;99.90;;;;;;5088088;28;20414;-76
2022/10/13 11:28:22;;;;;;;41.22;24.30;;;13.60;99.90;;;;;;5085341;28;20427;-76
2022/10/13 11:30:50;;;;;;;41.60;23.98;;;13.50;99.90;;;;;;5087632;28;20492;-76
2022/10/13 11:33:37;;;;;;;38.90;24.35;;;13.50;99.90;;;;;;5089553;28;20425;-77
2022/10/13 11:36:34;;;;;;;42.35;24.15;;;13.50;99.90;;;;;;5077072;28;20418;-76
2022/10/13 11:39:26;;;;;;;38.75;23.95;;;13.60;99.90;;;;;;5089330;28;20794;-77
2022/10/13 11:42:11;;;;;;;40.20;24.20;;;13.60;99.90;;;;;;5090152;28;20410;-77
2022/10/13 11:44:56;;;;;;;38.35;24.27;;;13.60;99.90;;;;;;5090440;28;20971;-77
2022/10/13 11:47:52;;;;;;;38.75;23.52;;;13.60;99.90;;;;;;5088092;28;20426;-77
2022/10/13 11:50:49;;;;;;;35.53;21.88;;;13.70;99.90;;;;;;5087860;28;20438;-77
2022/10/13 11:53:17;;;;;;;38.75;24.23;;;13.60;99.90;;;;;;5087787;28;20434;-77
2022/10/13 11:55:53;;;;;;;34.50;22.20;;;13.70;99.90;;;;;;5088966;28;20440;-77
2022/10/13 11:58:20;;;;;;;38.42;22.30;;;13.70;99.90;;;;;;5088156;28;20433;-77
2022/10/13 12:01:00;;;;;;;36.10;22.90;;;13.70;99.90;;;;;;5088254;28;20491;-77
2022/10/13 12:03:31;;;;;;;34.15;22.23;;;13.70;99.90;;;;;;5088204;28;20414;-76
2022/10/13 12:06:01;;;;;;;34.47;22.58;;;13.80;99.90;;;;;;5088126;28;20529;-77
2022/10/13 12:08:28;;;;;;;33.63;21.13;;;13.80;99.90;;;;;;5075182;28;20472;-76
2022/10/13 12:10:56;;;;;;;36.53;22.58;;;13.80;99.90;;;;;;5088018;28;20835;-77
2022/10/13 12:13:27;;;;;;;34.30;22.20;;;13.90;99.90;;;;;;5094759;28;20455;-77
2022/10/13 12:16:13;;;;;;;34.20;22.20;;;13.90;99.90;;;;;;5095139;28;20410;-77
2022/10/13 12:18:39;;;;;;;33.05;22.25;;;13.90;99.90;;;;;;5099073;28;20412;-76
2022/10/13 12:21:11;;;;;;;34.42;21.92;;;13.90;99.90;;;;;;5138360;27;20440;-77
2022/10/13 12:23:37;;;;;;;37.30;21.92;;;13.90;99.90;;;;;;5136082;27;20523;-77
2022/10/13 12:26:03;;;;;;;33.07;21.80;;;13.90;99.90;;;;;;5134056;27;20974;-77
2022/10/13 12:29:09;;;;;;;34.10;21.43;;;13.90;99.90;;;;;;5104512;28;20396;-77
2022/10/13 12:31:45;;;;;;;30.67;21.02;;;13.90;99.90;;;;;;5005243;28;20423;-77
2022/10/13 12:34:33;;;;;;;33.93;21.57;;;13.90;99.90;;;;;;5120513;27;20821;-77
2022/10/13 12:37:18;;;;;;;33.53;21.47;;;13.90;99.90;;;;;;5104516;28;20408;-77
2022/10/13 12:39:45;;;;;;;33.83;20.90;;;14.00;99.90;;;;;;5106083;28;20431;-77
2022/10/13 12:42:13;;;;;;;32.72;21.20;;;14.00;99.90;;;;;;5103948;28;20390;-77
2022/10/13 12:44:39;;;;;;;33.55;21.00;;;14.00;99.90;;;;;;5097784;28;20402;-77
2022/10/13 12:47:04;;;;;;;35.80;21.77;;;14.00;99.90;;;;;;5088699;28;20481;-77
2022/10/13 12:49:32;;;;;;;35.70;21.83;;;14.00;99.90;;;;;;5087406;28;20492;-76